Time;durP1;ratioP1;P1;durP2;ratioP2;P2;SDS_P1;SDS_P2;PMS_P1;PMS_P2;Temp;Humidity;BMP_temperature;BMP_pressure;BME280_temperature;BME280_humidity;BME280_pressure;Samples;Min_cycle;Max_cycle;Signal;HPM_P1;HPM_P2
2023/10/18 00:02:54;;;;;;;47.63;33.17;;;4.90;99.90;;;;;;5008456;28;20543;-72
2023/10/18 00:05:22;;;;;;;45.70;33.47;;;4.80;99.90;;;;;;5002646;28;20068;-73
2023/10/18 00:07:51;;;;;;;46.97;33.72;;;4.80;99.90;;;;;;5008915;28;20116;-73
2023/10/18 00:10:20;;;;;;;50.38;35.25;;;4.80;99.90;;;;;;5001879;28;20053;-72
2023/10/18 00:12:48;;;;;;;48.55;33.45;;;4.70;99.90;;;;;;4997675;28;20530;-72
2023/10/18 00:15:15;;;;;;;49.45;34.38;;;4.80;99.90;;;;;;4983881;28;20188;-72
2023/10/18 00:17:42;;;;;;;52.83;33.53;;;4.70;99.90;;;;;;5001003;28;20054;-72
2023/10/18 00:20:31;;;;;;;51.40;36.58;;;4.70;99.90;;;;;;4996194;28;20064;-73
2023/10/18 00:22:57;;;;;;;52.38;35.95;;;4.70;99.90;;;;;;4999514;28;20049;-72
2023/10/18 00:25:24;;;;;;;50.20;35.13;;;4.70;99.90;;;;;;5000811;28;20133;-71
2023/10/18 00:27:51;;;;;;;56.85;36.97;;;4.70;99.90;;;;;;5005863;28;20049;-73
2023/10/18 00:30:18;;;;;;;59.67;36.67;;;4.70;99.90;;;;;;5002822;28;20376;-75
2023/10/18 00:32:46;;;;;;;54.83;36.83;;;4.60;99.90;;;;;;5008035;28;20334;-74
2023/10/18 00:35:20;;;;;;;61.10;38.40;;;4.60;99.90;;;;;;5003793;28;20099;-72
2023/10/18 00:37:48;;;;;;;58.95;36.53;;;4.60;99.90;;;;;;5000886;28;20053;-72
2023/10/18 00:45:47;;;;;;;59.55;38.13;;;4.50;99.90;;;;;;4997231;28;20050;-75
2023/10/18 00:48:14;;;;;;;55.85;37.63;;;4.60;99.90;;;;;;5001849;28;20315;-74
2023/10/18 00:50:43;;;;;;;61.03;41.28;;;4.50;99.90;;;;;;4992259;28;20049;-73
2023/10/18 00:53:20;;;;;;;61.70;40.70;;;4.50;99.90;;;;;;5003964;28;20042;-73
2023/10/18 00:56:04;;;;;;;61.50;40.05;;;4.50;99.90;;;;;;4999996;28;20139;-75
2023/10/18 00:58:33;;;;;;;59.65;38.30;;;4.40;99.90;;;;;;4994050;28;20053;-75
2023/10/18 01:01:08;;;;;;;64.00;39.95;;;4.50;99.90;;;;;;5024132;28;20041;-74
2023/10/18 01:03:38;;;;;;;55.28;37.15;;;4.50;99.90;;;;;;5018857;28;20052;-74
2023/10/18 01:06:09;;;;;;;55.08;38.33;;;4.50;99.90;;;;;;4993862;28;20058;-74
2023/10/18 01:08:37;;;;;;;56.60;37.45;;;4.60;99.90;;;;;;4994399;28;20046;-74
2023/10/18 01:11:07;;;;;;;55.60;35.03;;;4.70;99.90;;;;;;4994598;28;20042;-74
2023/10/18 01:13:47;;;;;;;57.85;37.58;;;4.70;99.90;;;;;;4995550;28;20060;-73
2023/10/18 01:16:21;;;;;;;57.35;37.33;;;4.70;99.90;;;;;;4995835;28;20107;-74
2023/10/18 01:18:50;;;;;;;56.40;36.63;;;4.70;99.90;;;;;;4999296;28;20060;-74
2023/10/18 01:21:19;;;;;;;58.50;37.28;;;4.70;99.90;;;;;;5007403;28;20045;-73
2023/10/18 01:23:51;;;;;;;59.92;37.85;;;4.60;99.90;;;;;;5003800;28;20069;-74
2023/10/18 01:26:23;;;;;;;61.50;38.22;;;4.70;99.90;;;;;;5004084;28;20733;-75
2023/10/18 01:28:54;;;;;;;54.15;35.95;;;4.70;99.90;;;;;;5000063;28;20056;-75
2023/10/18 01:31:22;;;;;;;61.55;37.13;;;4.70;99.90;;;;;;4987853;28;20092;-74
2023/10/18 01:33:50;;;;;;;53.90;35.53;;;4.70;99.90;;;;;;5005021;28;20861;-75
2023/10/18 01:36:20;;;;;;;53.03;36.17;;;4.60;99.90;;;;;;5011017;28;20100;-74
2023/10/18 01:38:52;;;;;;;53.97;36.35;;;4.60;99.90;;;;;;4999432;28;20050;-75
2023/10/18 01:41:37;;;;;;;58.38;38.42;;;4.60;99.90;;;;;;4996777;28;20057;-74
2023/10/18 01:44:06;;;;;;;56.28;36.17;;;4.60;99.90;;;;;;4981391;28;20038;-72
2023/10/18 01:46:48;;;;;;;59.95;37.28;;;4.50;99.90;;;;;;4990693;28;20564;-72
2023/10/18 01:49:24;;;;;;;62.58;37.97;;;4.50;99.90;;;;;;5026892;28;20100;-73
2023/10/18 01:51:54;;;;;;;56.40;36.85;;;4.50;99.90;;;;;;4997341;28;20042;-74
2023/10/18 01:54:25;;;;;;;59.17;36.75;;;4.60;99.90;;;;;;4976902;28;20128;-72
2023/10/18 01:56:57;;;;;;;59.40;37.35;;;4.50;99.90;;;;;;4978622;28;21100;-73
2023/10/18 01:59:27;;;;;;;58.22;36.00;;;4.50;99.90;;;;;;5003133;28;21363;-73
2023/10/18 02:01:57;;;;;;;61.75;37.85;;;4.50;99.90;;;;;;4995020;28;20137;-72
2023/10/18 02:04:30;;;;;;;57.10;37.30;;;4.40;99.90;;;;;;4998429;28;20138;-72
2023/10/18 02:07:17;;;;;;;62.70;36.75;;;4.40;99.90;;;;;;4982888;28;20057;-73
2023/10/18 02:09:48;;;;;;;61.63;37.85;;;4.50;99.90;;;;;;5009363;28;20053;-72
2023/10/18 02:12:18;;;;;;;57.72;36.80;;;4.50;99.90;;;;;;5028426;28;20050;-73
2023/10/18 02:14:46;;;;;;;61.08;37.20;;;4.50;99.90;;;;;;4999631;28;20038;-72
2023/10/18 02:17:12;;;;;;;57.65;37.13;;;4.50;99.90;;;;;;5002378;28;20049;-73
2023/10/18 02:19:39;;;;;;;59.53;36.22;;;4.40;99.90;;;;;;5009216;28;20045;-74
2023/10/18 02:22:09;;;;;;;60.20;36.63;;;4.40;99.90;;;;;;4992893;28;20380;-73
2023/10/18 02:24:38;;;;;;;57.78;37.10;;;4.40;99.90;;;;;;4997495;28;20080;-74
2023/10/18 02:27:09;;;;;;;61.47;37.05;;;4.40;99.90;;;;;;5015607;28;20176;-72
2023/10/18 02:29:39;;;;;;;55.60;33.55;;;4.20;99.90;;;;;;5002839;28;20049;-73
2023/10/18 02:32:21;;;;;;;62.67;37.55;;;4.20;99.90;;;;;;4998393;28;20184;-74
2023/10/18 02:34:51;;;;;;;62.33;36.75;;;4.20;99.90;;;;;;4983898;28;20049;-73
2023/10/18 02:37:19;;;;;;;59.85;36.55;;;4.20;99.90;;;;;;4994992;28;20121;-74
2023/10/18 02:39:46;;;;;;;60.90;36.20;;;4.30;99.90;;;;;;4981047;28;20128;-74
2023/10/18 02:42:28;;;;;;;59.22;38.15;;;4.20;99.90;;;;;;4999854;28;20571;-74
2023/10/18 02:44:56;;;;;;;62.70;37.38;;;4.30;99.90;;;;;;4994057;28;20058;-74
2023/10/18 02:47:23;;;;;;;62.47;37.55;;;4.30;99.90;;;;;;5004900;28;20048;-73
2023/10/18 02:49:51;;;;;;;61.53;38.35;;;4.30;99.90;;;;;;4999212;28;20037;-74
2023/10/18 02:52:19;;;;;;;71.88;38.97;;;4.30;99.90;;;;;;4982236;28;20133;-74
2023/10/18 02:54:51;;;;;;;63.00;39.40;;;4.20;99.90;;;;;;5003460;28;20053;-72
2023/10/18 02:57:18;;;;;;;61.13;38.55;;;4.30;99.90;;;;;;4991044;28;20080;-72
2023/10/18 02:59:45;;;;;;;66.07;37.58;;;4.30;99.90;;;;;;5032501;28;20037;-72
2023/10/18 03:02:14;;;;;;;59.53;36.13;;;4.30;99.90;;;;;;5002074;28;20038;-72
2023/10/18 03:04:47;;;;;;;65.18;39.45;;;4.30;99.90;;;;;;5019311;28;20038;-72
2023/10/18 03:07:15;;;;;;;68.82;39.45;;;4.30;99.90;;;;;;5024815;28;20029;-71
2023/10/18 03:09:48;;;;;;;51.33;31.63;;;4.20;99.90;;;;;;5024427;28;20275;-73
2023/10/18 03:12:17;;;;;;;61.17;36.55;;;4.30;99.90;;;;;;5023322;28;20054;-73
2023/10/18 03:14:57;;;;;;;63.08;38.90;;;4.30;99.90;;;;;;5022183;28;20041;-73
2023/10/18 03:17:24;;;;;;;55.83;35.00;;;4.30;99.90;;;;;;5025274;28;20034;-72
2023/10/18 03:19:56;;;;;;;55.60;34.60;;;4.30;99.90;;;;;;5032950;28;20061;-74
2023/10/18 03:22:29;;;;;;;58.25;35.35;;;4.30;99.90;;;;;;5017770;28;20045;-71
2023/10/18 03:24:58;;;;;;;63.15;33.00;;;4.40;99.90;;;;;;5012942;28;20070;-73
2023/10/18 03:27:41;;;;;;;55.45;33.60;;;4.30;99.90;;;;;;5010536;28;20054;-73
2023/10/18 03:30:17;;;;;;;55.95;35.80;;;4.30;99.90;;;;;;5013943;28;20050;-72
2023/10/18 03:32:50;;;;;;;52.00;36.30;;;4.30;99.90;;;;;;5019256;28;20045;-73
2023/10/18 03:35:20;;;;;;;59.72;36.20;;;4.30;99.90;;;;;;5015765;28;20057;-72
2023/10/18 03:37:47;;;;;;;57.58;37.47;;;4.40;99.90;;;;;;5011366;28;20120;-72
2023/10/18 03:40:20;;;;;;;61.20;37.45;;;4.30;99.90;;;;;;5012561;28;20054;-72
2023/10/18 03:42:53;;;;;;;47.40;30.85;;;4.20;99.90;;;;;;5006602;28;20046;-71
2023/10/18 03:45:27;;;;;;;55.65;35.83;;;4.20;99.90;;;;;;5027643;28;20038;-71
2023/10/18 03:47:58;;;;;;;57.30;33.58;;;4.20;99.90;;;;;;5017920;28;20076;-72
2023/10/18 03:50:41;;;;;;;58.83;35.88;;;4.20;99.90;;;;;;5003746;28;20068;-72
2023/10/18 03:53:13;;;;;;;61.03;38.78;;;4.10;99.90;;;;;;4973464;28;20069;-72
2023/10/18 03:55:42;;;;;;;60.40;37.63;;;4.10;99.90;;;;;;4980121;28;20038;-71
2023/10/18 03:58:17;;;;;;;58.22;34.42;;;4.10;99.90;;;;;;5003209;28;20038;-73
2023/10/18 04:00:47;;;;;;;58.92;35.85;;;4.20;99.90;;;;;;4993095;28;20432;-72
2023/10/18 04:03:20;;;;;;;65.28;37.80;;;4.10;99.90;;;;;;4978375;28;20041;-74
2023/10/18 04:05:49;;;;;;;51.30;33.38;;;4.20;99.90;;;;;;4993852;28;20704;-73
2023/10/18 04:08:17;;;;;;;62.08;38.38;;;4.20;99.90;;;;;;5001420;28;20482;-73
2023/10/18 04:10:46;;;;;;;64.28;37.95;;;4.20;99.90;;;;;;4989984;28;20601;-74
2023/10/18 04:13:14;;;;;;;64.22;37.70;;;4.30;99.90;;;;;;4998261;28;20524;-73
2023/10/18 04:15:45;;;;;;;64.32;39.38;;;4.20;99.90;;;;;;4995680;28;20125;-73
2023/10/18 04:18:13;;;;;;;89.85;53.42;;;4.20;99.90;;;;;;4988180;28;20050;-73
2023/10/18 04:20:47;;;;;;;92.38;52.45;;;4.10;99.90;;;;;;4991311;28;20117;-72
2023/10/18 04:23:15;;;;;;;121.75;63.22;;;4.20;99.90;;;;;;5007587;28;20041;-72
2023/10/18 04:25:43;;;;;;;84.65;48.10;;;4.20;99.90;;;;;;4997819;28;20044;-72
2023/10/18 04:28:12;;;;;;;93.90;53.88;;;4.10;99.90;;;;;;5007288;28;20180;-75
2023/10/18 04:30:39;;;;;;;70.60;42.92;;;4.10;99.90;;;;;;4995007;28;20306;-75
2023/10/18 04:35:45;;;;;;;70.97;39.38;;;4.00;99.90;;;;;;4990765;28;20729;-73
2023/10/18 04:38:22;;;;;;;64.95;38.95;;;4.00;99.90;;;;;;4992466;28;20393;-74
2023/10/18 04:43:32;;;;;;;65.65;38.53;;;4.10;99.90;;;;;;5005912;28;20052;-73
2023/10/18 04:46:07;;;;;;;73.40;40.38;;;4.00;99.90;;;;;;4990729;28;20054;-74
2023/10/18 04:51:44;;;;;;;68.82;38.92;;;4.00;99.90;;;;;;5022958;28;20048;-72
2023/10/18 04:54:15;;;;;;;65.97;38.67;;;3.90;99.90;;;;;;5009291;28;20521;-73
2023/10/18 04:56:46;;;;;;;63.28;34.33;;;4.00;99.90;;;;;;4995620;28;20042;-72
2023/10/18 05:04:34;;;;;;;63.00;36.80;;;3.90;99.90;;;;;;4996741;28;20131;-73
2023/10/18 05:07:14;;;;;;;59.83;39.13;;;3.90;99.90;;;;;;4975009;28;20080;-74
2023/10/18 05:09:45;;;;;;;64.20;38.25;;;3.90;99.90;;;;;;4990719;28;20057;-74
2023/10/18 05:17:28;;;;;;;55.28;35.10;;;4.00;99.90;;;;;;4994635;28;19991;-73
2023/10/18 05:19:56;;;;;;;57.35;36.50;;;4.00;99.90;;;;;;4988942;28;20050;-73
2023/10/18 05:22:24;;;;;;;58.47;36.45;;;4.00;99.90;;;;;;4992414;28;20492;-74
2023/10/18 05:27:59;;;;;;;64.88;36.65;;;3.90;99.90;;;;;;5000217;28;20046;-73
2023/10/18 05:31:20;;;;;;;56.20;33.22;;;4.00;99.90;;;;;;4995716;28;20458;-73
2023/10/18 05:33:37;;;;;;;63.95;35.95;;;4.00;99.90;;;;;;4994347;28;20050;-74
2023/10/18 05:41:28;;;;;;;58.83;35.47;;;3.90;99.90;;;;;;4991465;28;20042;-73
2023/10/18 05:43:58;;;;;;;55.38;33.95;;;4.00;99.90;;;;;;4982597;28;20048;-74
2023/10/18 05:46:33;;;;;;;53.95;32.28;;;3.90;99.90;;;;;;4995551;28;20127;-72
2023/10/18 05:49:01;;;;;;;59.38;36.35;;;3.90;99.90;;;;;;4986137;28;20132;-73
2023/10/18 05:51:32;;;;;;;51.88;33.90;;;3.90;99.90;;;;;;4993748;28;20077;-73
2023/10/18 05:54:05;;;;;;;56.20;34.00;;;4.00;99.90;;;;;;4990264;28;20041;-72
2023/10/18 05:56:33;;;;;;;61.05;35.05;;;4.00;99.90;;;;;;4990587;28;20042;-73
2023/10/18 05:59:27;;;;;;;57.50;36.42;;;4.00;99.90;;;;;;4971203;28;20159;-73
2023/10/18 06:01:58;;;;;;;51.13;34.30;;;4.10;99.90;;;;;;4985709;28;20081;-71
2023/10/18 06:04:38;;;;;;;53.80;35.67;;;4.10;99.90;;;;;;4995948;28;20049;-72
2023/10/18 06:07:09;;;;;;;50.90;32.10;;;4.10;99.90;;;;;;5017026;28;20095;-72
2023/10/18 06:09:47;;;;;;;54.13;36.20;;;4.10;99.90;;;;;;4985060;28;20468;-72
2023/10/18 06:12:21;;;;;;;46.67;33.47;;;4.20;99.90;;;;;;4985473;28;20495;-72
2023/10/18 06:14:51;;;;;;;53.20;37.72;;;4.20;99.90;;;;;;4991215;28;20045;-73
2023/10/18 06:17:22;;;;;;;58.67;37.95;;;4.10;99.90;;;;;;4989252;28;20073;-73
2023/10/18 06:19:50;;;;;;;51.15;36.55;;;4.20;99.90;;;;;;4995681;28;20060;-73
2023/10/18 06:22:38;;;;;;;55.47;37.47;;;4.10;99.90;;;;;;4985465;28;20631;-75
2023/10/18 06:25:09;;;;;;;60.05;37.03;;;4.20;99.90;;;;;;4978883;28;20049;-75
2023/10/18 06:27:39;;;;;;;49.20;33.25;;;4.10;99.90;;;;;;4995945;28;20112;-76
2023/10/18 06:30:14;;;;;;;45.20;34.22;;;4.10;99.90;;;;;;4990409;28;20038;-75
2023/10/18 06:32:43;;;;;;;51.80;35.88;;;4.10;99.90;;;;;;4993140;28;20078;-75
2023/10/18 06:35:17;;;;;;;51.92;35.90;;;4.10;99.90;;;;;;4974416;28;20046;-74
2023/10/18 06:37:44;;;;;;;46.33;30.75;;;4.10;99.90;;;;;;4995593;28;20046;-76
2023/10/18 06:40:24;;;;;;;49.33;36.28;;;4.10;99.90;;;;;;4990318;28;20626;-75
2023/10/18 06:42:51;;;;;;;51.10;36.05;;;4.10;99.90;;;;;;4992005;28;20104;-74
2023/10/18 06:45:18;;;;;;;48.85;36.67;;;4.20;99.90;;;;;;4990157;28;20046;-74
2023/10/18 06:47:45;;;;;;;50.00;36.13;;;4.20;99.90;;;;;;4979412;28;20048;-74
2023/10/18 06:50:19;;;;;;;45.72;32.97;;;4.30;99.90;;;;;;4979298;28;20068;-75
2023/10/18 06:52:52;;;;;;;49.28;36.10;;;4.20;99.90;;;;;;5001611;28;20099;-74
2023/10/18 06:56:06;;;;;;;54.83;36.25;;;4.20;99.90;;;;;;4982102;28;20056;-74
2023/10/18 07:00:54;;;;;;;53.25;36.65;;;4.30;99.90;;;;;;4990587;28;20045;-73
2023/10/18 07:03:27;;;;;;;48.33;34.90;;;4.40;99.90;;;;;;4993956;28;20108;-74
2023/10/18 07:05:56;;;;;;;40.88;33.80;;;4.40;99.90;;;;;;5000809;28;20646;-74
2023/10/18 07:08:32;;;;;;;48.55;35.85;;;4.40;99.90;;;;;;4987551;28;20046;-75
2023/10/18 07:11:08;;;;;;;39.97;32.03;;;4.50;99.90;;;;;;4992198;28;20053;-74
2023/10/18 07:13:47;;;;;;;46.88;35.50;;;4.50;99.90;;;;;;4995438;28;20065;-73
2023/10/18 07:16:29;;;;;;;46.03;35.42;;;4.60;99.90;;;;;;5000512;28;20041;-75
2023/10/18 07:21:42;;;;;;;;;;;4.60;99.90;;;;;;5005968;28;20046;-73
2023/10/18 07:24:10;;;;;;;46.03;35.97;;;4.70;99.90;;;;;;5021019;28;19932;-74
2023/10/18 07:26:38;;;;;;;51.10;36.03;;;4.80;99.90;;;;;;4979512;28;20046;-74
2023/10/18 07:29:08;;;;;;;47.00;35.17;;;4.80;99.90;;;;;;4996632;28;20042;-74
2023/10/18 07:31:38;;;;;;;44.00;34.28;;;4.90;99.90;;;;;;5031469;28;20461;-74
2023/10/18 07:34:11;;;;;;;44.72;36.22;;;4.90;99.90;;;;;;4997554;28;20160;-74
2023/10/18 07:36:38;;;;;;;49.03;36.88;;;4.90;99.90;;;;;;4997621;28;20033;-74
2023/10/18 07:39:06;;;;;;;40.33;30.77;;;5.00;99.90;;;;;;5007862;28;20791;-73
2023/10/18 07:41:36;;;;;;;46.08;36.15;;;5.00;99.90;;;;;;4988284;28;20733;-72
2023/10/18 07:44:06;;;;;;;40.95;33.10;;;5.10;99.90;;;;;;4987951;28;20042;-73
2023/10/18 07:46:34;;;;;;;42.45;34.05;;;5.10;99.90;;;;;;4997558;28;20137;-73
2023/10/18 07:49:05;;;;;;;47.90;36.67;;;5.10;99.90;;;;;;4984259;28;20133;-73
2023/10/18 07:51:34;;;;;;;54.38;38.50;;;5.10;99.90;;;;;;5005081;28;20117;-73
2023/10/18 07:54:02;;;;;;;46.05;36.90;;;5.20;99.90;;;;;;5006571;28;20050;-71
2023/10/18 07:56:31;;;;;;;45.38;38.50;;;5.30;99.90;;;;;;4984327;28;20100;-75
2023/10/18 08:01:47;;;;;;;46.85;37.83;;;5.40;99.90;;;;;;4990538;28;20773;-75
2023/10/18 08:04:17;;;;;;;46.83;36.40;;;5.30;99.90;;;;;;4991254;28;20068;-72
2023/10/18 08:06:50;;;;;;;46.92;38.70;;;5.30;99.90;;;;;;5007798;28;20500;-73
2023/10/18 08:09:28;;;;;;;45.38;36.28;;;5.40;99.90;;;;;;5000917;28;20057;-73
2023/10/18 08:12:05;;;;;;;43.30;35.03;;;5.40;99.90;;;;;;5020834;28;20049;-73
2023/10/18 08:14:33;;;;;;;45.65;35.05;;;5.40;99.90;;;;;;4997453;28;20041;-73
2023/10/18 08:17:09;;;;;;;48.42;37.20;;;5.30;99.90;;;;;;4996745;28;20115;-73
2023/10/18 08:19:43;;;;;;;46.08;37.92;;;5.40;99.90;;;;;;5002381;28;20077;-72
2023/10/18 08:24:41;;;;;;;44.83;35.55;;;5.60;99.90;;;;;;5004587;28;20841;-72
2023/10/18 08:27:10;;;;;;;49.28;37.75;;;5.60;99.90;;;;;;4994219;28;20704;-73
2023/10/18 08:29:38;;;;;;;41.13;36.05;;;5.50;99.90;;;;;;4994569;28;20584;-72
2023/10/18 08:32:18;;;;;;;41.90;36.28;;;5.50;99.90;;;;;;4994480;28;20041;-73
2023/10/18 08:34:47;;;;;;;45.35;36.60;;;5.50;99.90;;;;;;4995829;28;20138;-73
2023/10/18 08:37:14;;;;;;;44.45;37.38;;;5.60;99.90;;;;;;4974501;28;20049;-73
2023/10/18 08:39:52;;;;;;;46.30;38.13;;;5.60;99.90;;;;;;4997668;28;20050;-74
2023/10/18 08:42:25;;;;;;;49.13;36.65;;;5.70;99.90;;;;;;4988906;28;20057;-73
2023/10/18 08:44:55;;;;;;;42.53;35.65;;;5.70;99.90;;;;;;4992050;28;20521;-73
2023/10/18 08:47:39;;;;;;;43.47;37.65;;;5.70;99.90;;;;;;4978354;28;20072;-73
2023/10/18 08:50:10;;;;;;;41.08;36.58;;;5.80;99.90;;;;;;4997277;28;20108;-74
2023/10/18 08:52:44;;;;;;;49.63;38.58;;;5.90;99.90;;;;;;4990291;28;20045;-73
2023/10/18 08:55:22;;;;;;;43.58;38.85;;;6.00;99.90;;;;;;5012132;28;20058;-74
2023/10/18 08:58:00;;;;;;;45.22;37.22;;;6.00;99.90;;;;;;4982126;28;20097;-73
2023/10/18 09:02:54;;;;;;;41.30;36.33;;;6.10;99.90;;;;;;4993701;28;20126;-73
2023/10/18 09:05:23;;;;;;;45.42;36.65;;;6.20;99.90;;;;;;4994171;28;20052;-74
2023/10/18 09:07:55;;;;;;;42.55;36.63;;;6.10;99.90;;;;;;5001403;28;20041;-73
2023/10/18 09:18:32;;;;;;;43.10;36.83;;;6.40;99.90;;;;;;5010997;28;20046;-73
2023/10/18 09:23:43;;;;;;;43.65;37.47;;;6.50;99.90;;;;;;4995734;28;20045;-73
2023/10/18 09:26:18;;;;;;;40.53;34.22;;;6.60;99.90;;;;;;5019923;28;20440;-72
2023/10/18 09:28:46;;;;;;;41.10;36.83;;;6.60;99.90;;;;;;4995889;28;20045;-73
2023/10/18 09:31:21;;;;;;;44.13;37.33;;;6.60;99.90;;;;;;4984543;28;20049;-73
2023/10/18 09:33:50;;;;;;;42.42;37.88;;;6.80;99.90;;;;;;4992943;28;20409;-74
2023/10/18 09:36:29;;;;;;;41.63;37.38;;;6.90;99.90;;;;;;4997115;28;20045;-74
2023/10/18 09:38:57;;;;;;;42.30;38.22;;;7.00;99.90;;;;;;5000467;28;20049;-73
2023/10/18 09:41:30;;;;;;;41.15;36.85;;;7.00;99.90;;;;;;4988331;28;20627;-74
2023/10/18 09:44:01;;;;;;;40.47;36.30;;;7.10;99.90;;;;;;4981926;28;20160;-74
2023/10/18 09:46:28;;;;;;;41.33;36.97;;;7.10;99.90;;;;;;4991687;28;21205;-73
2023/10/18 09:48:58;;;;;;;39.70;35.90;;;7.10;99.90;;;;;;4996368;28;20042;-73
2023/10/18 09:51:26;;;;;;;41.03;36.67;;;7.20;99.90;;;;;;4994605;28;20053;-73
2023/10/18 09:53:56;;;;;;;39.08;34.53;;;7.30;99.90;;;;;;5004790;28;20104;-74
2023/10/18 09:56:26;;;;;;;39.80;35.78;;;7.40;99.90;;;;;;4995136;28;20046;-74
2023/10/18 09:59:05;;;;;;;41.95;38.03;;;7.50;99.90;;;;;;4996305;28;20038;-74
2023/10/18 10:04:14;;;;;;;37.15;33.60;;;7.80;99.90;;;;;;5001760;28;20069;-72
2023/10/18 10:06:53;;;;;;;38.35;34.95;;;7.80;99.90;;;;;;4995516;28;20426;-76
2023/10/18 10:09:28;;;;;;;38.08;34.53;;;7.80;99.90;;;;;;4990903;28;20076;-78
2023/10/18 10:11:58;;;;;;;37.33;34.05;;;8.10;99.90;;;;;;4977241;28;20073;-77
2023/10/18 10:14:29;;;;;;;39.17;35.58;;;8.20;99.90;;;;;;4998859;28;20050;-76
2023/10/18 10:17:06;;;;;;;38.78;35.00;;;8.50;99.90;;;;;;4998998;28;20092;-77
2023/10/18 10:19:40;;;;;;;37.38;33.85;;;8.60;99.90;;;;;;4994540;28;20104;-77
2023/10/18 10:22:11;;;;;;;36.47;33.35;;;8.60;99.90;;;;;;4997725;28;20819;-77
2023/10/18 10:24:43;;;;;;;38.95;35.63;;;8.80;99.90;;;;;;5002721;28;20042;-77
2023/10/18 10:27:41;;;;;;;38.50;34.90;;;8.90;99.90;;;;;;5007256;28;20103;-78
2023/10/18 10:32:52;;;;;;;37.28;33.65;;;9.10;99.90;;;;;;5025309;28;19961;-77
2023/10/18 10:35:24;;;;;;;37.10;33.85;;;9.10;99.90;;;;;;5001952;28;20058;-77
2023/10/18 10:38:09;;;;;;;35.63;32.63;;;9.20;99.90;;;;;;5005837;28;20052;-78
2023/10/18 10:40:44;;;;;;;34.92;31.92;;;9.20;99.90;;;;;;4983232;28;20057;-76
2023/10/18 10:43:14;;;;;;;35.78;32.75;;;9.10;99.90;;;;;;4983335;28;20133;-75
2023/10/18 10:48:15;;;;;;;37.85;34.85;;;9.40;99.90;;;;;;5000794;28;20084;-75
2023/10/18 10:50:53;;;;;;;33.80;31.15;;;9.50;99.90;;;;;;4997531;28;20072;-76
2023/10/18 10:53:44;;;;;;;32.80;29.95;;;9.40;99.90;;;;;;4999102;28;20045;-76
2023/10/18 10:56:18;;;;;;;35.60;32.53;;;9.20;99.90;;;;;;5000091;28;20044;-74
2023/10/18 10:58:55;;;;;;;34.53;31.88;;;9.20;99.90;;;;;;4988846;28;20058;-76
2023/10/18 11:01:57;;;;;;;36.58;33.47;;;9.30;99.90;;;;;;5004293;28;20042;-75
2023/10/18 11:04:27;;;;;;;36.05;32.95;;;9.40;99.90;;;;;;5010027;28;20052;-76
2023/10/18 11:06:57;;;;;;;35.20;32.22;;;9.80;99.90;;;;;;5000366;28;20050;-75
2023/10/18 11:09:32;;;;;;;34.20;31.45;;;9.90;99.90;;;;;;4994803;28;20073;-75
2023/10/18 11:12:08;;;;;;;33.38;30.83;;;9.80;99.90;;;;;;4992087;28;20093;-75
2023/10/18 11:14:36;;;;;;;35.35;32.50;;;10.00;99.90;;;;;;5019602;28;20050;-75
2023/10/18 11:19:44;;;;;;;33.72;30.83;;;10.40;99.90;;;;;;5035314;28;20041;-75
2023/10/18 11:22:13;;;;;;;32.40;29.60;;;10.20;99.90;;;;;;5022878;28;20108;-76
2023/10/18 11:24:41;;;;;;;34.40;31.60;;;10.10;99.90;;;;;;5009503;28;20041;-77
2023/10/18 11:27:08;;;;;;;33.97;30.92;;;10.10;99.90;;;;;;4984050;28;20049;-76
2023/10/18 11:29:39;;;;;;;30.77;28.00;;;10.10;99.90;;;;;;4997890;28;21797;-76
2023/10/18 11:32:07;;;;;;;31.77;28.77;;;10.10;99.90;;;;;;5006641;28;20034;-76
2023/10/18 11:34:43;;;;;;;31.90;29.30;;;10.20;99.90;;;;;;4993302;28;20061;-76
2023/10/18 11:37:13;;;;;;;32.63;29.70;;;10.40;99.90;;;;;;4998190;28;20571;-76
2023/10/18 11:39:41;;;;;;;30.25;27.83;;;10.80;99.90;;;;;;5028830;28;20504;-75
2023/10/18 11:42:10;;;;;;;32.38;29.42;;;10.70;99.90;;;;;;4998004;28;20095;-75
2023/10/18 11:44:39;;;;;;;30.75;27.95;;;10.60;99.90;;;;;;5004527;28;20940;-75
2023/10/18 11:47:18;;;;;;;30.58;28.00;;;10.80;99.90;;;;;;5010804;28;20650;-75
2023/10/18 11:49:53;;;;;;;30.30;27.63;;;11.00;99.90;;;;;;5013375;28;20079;-75
2023/10/18 11:52:25;;;;;;;31.23;28.35;;;11.30;99.90;;;;;;4995008;28;20045;-75
2023/10/18 11:55:05;;;;;;;31.25;28.35;;;11.20;99.90;;;;;;5005269;28;20041;-74
2023/10/18 11:57:39;;;;;;;30.30;27.50;;;11.10;99.90;;;;;;5012079;28;20045;-75
2023/10/18 12:02:54;;;;;;;29.67;27.13;;;11.30;99.90;;;;;;5001577;28;20061;-77
2023/10/18 12:05:24;;;;;;;28.52;26.30;;;11.20;99.90;;;;;;5000265;28;20042;-77
2023/10/18 12:07:53;;;;;;;28.90;26.60;;;11.10;99.90;;;;;;5008501;28;20512;-77
2023/10/18 12:10:34;;;;;;;29.77;27.00;;;11.00;99.90;;;;;;4998099;28;20062;-77
2023/10/18 12:13:06;;;;;;;28.52;26.23;;;11.10;99.90;;;;;;5000697;28;20126;-77
2023/10/18 12:15:37;;;;;;;28.80;26.50;;;11.30;99.90;;;;;;4998884;28;20056;-77
2023/10/18 12:18:05;;;;;;;28.27;25.95;;;11.30;99.90;;;;;;4997227;28;20046;-78
2023/10/18 12:20:35;;;;;;;28.35;25.95;;;11.40;99.90;;;;;;4997837;28;20133;-78
2023/10/18 12:23:21;;;;;;;28.55;25.88;;;11.20;99.90;;;;;;5006234;28;20038;-79
2023/10/18 12:25:49;;;;;;;29.27;26.77;;;10.90;99.90;;;;;;4983020;28;20133;-78
2023/10/18 12:28:18;;;;;;;29.23;26.52;;;10.80;99.90;;;;;;5009442;28;20049;-79
2023/10/18 12:30:56;;;;;;;28.38;26.08;;;10.70;99.90;;;;;;5011169;28;20459;-79
2023/10/18 12:33:27;;;;;;;28.67;26.27;;;10.70;99.90;;;;;;5003171;28;20623;-78
2023/10/18 12:35:59;;;;;;;29.50;27.00;;;10.50;99.90;;;;;;5002361;28;20034;-79
2023/10/18 12:38:34;;;;;;;29.23;26.60;;;10.60;99.90;;;;;;4986474;28;20042;-76
2023/10/18 12:41:04;;;;;;;;;;;10.60;99.90;;;;;;5001105;28;20038;-74
2023/10/18 12:43:32;;;;;;;29.75;27.02;;;10.60;99.90;;;;;;4979246;28;19940;-69
2023/10/18 12:46:03;;;;;;;30.67;27.73;;;10.60;99.90;;;;;;4991210;28;20042;-69
2023/10/18 12:48:35;;;;;;;31.08;28.40;;;10.60;99.90;;;;;;4998116;28;20246;-75
2023/10/18 12:51:08;;;;;;;31.73;28.98;;;10.70;99.90;;;;;;5004519;28;20046;-75
2023/10/18 12:53:41;;;;;;;29.77;27.50;;;10.70;99.90;;;;;;4998445;28;20054;-75
2023/10/18 12:58:58;;;;;;;;;;;10.80;99.90;;;;;;5000219;28;20696;-77
2023/10/18 13:01:33;;;;;;;28.67;26.38;;;10.90;99.90;;;;;;5030902;28;19945;-75
2023/10/18 13:04:00;;;;;;;28.20;26.08;;;10.90;99.90;;;;;;5004485;28;20045;-74
2023/10/18 13:06:35;;;;;;;28.88;26.67;;;10.80;99.90;;;;;;5003755;28;20112;-74
2023/10/18 13:14:23;;;;;;;27.90;25.70;;;11.00;99.90;;;;;;5000344;28;20613;-75
2023/10/18 13:16:51;;;;;;;28.90;26.65;;;11.10;99.90;;;;;;5001582;28;20065;-76
2023/10/18 13:19:19;;;;;;;27.83;25.73;;;11.20;99.90;;;;;;4992867;28;20150;-76
2023/10/18 13:21:49;;;;;;;27.98;26.05;;;11.50;99.90;;;;;;5003613;28;20597;-75
2023/10/18 13:24:17;;;;;;;28.33;26.23;;;11.50;99.90;;;;;;5006914;28;20053;-76
2023/10/18 13:26:44;;;;;;;27.30;25.10;;;11.70;99.90;;;;;;4997626;28;20249;-75
2023/10/18 13:31:51;;;;;;;29.67;27.50;;;11.70;99.90;;;;;;5003985;28;20103;-76
2023/10/18 13:34:18;;;;;;;29.45;27.10;;;11.50;99.90;;;;;;5007062;28;20046;-74
2023/10/18 13:36:51;;;;;;;27.38;24.98;;;11.60;99.90;;;;;;4996016;28;20140;-75
2023/10/18 13:39:20;;;;;;;26.70;24.63;;;11.80;99.90;;;;;;4981859;28;20069;-74
2023/10/18 13:41:47;;;;;;;27.52;25.40;;;11.90;99.90;;;;;;4994765;28;20153;-76
2023/10/18 13:44:19;;;;;;;27.20;25.33;;;12.00;99.90;;;;;;5026192;28;20045;-75
2023/10/18 13:46:47;;;;;;;27.42;25.42;;;11.90;99.90;;;;;;5006164;28;20057;-75
2023/10/18 13:49:34;;;;;;;28.80;26.60;;;11.90;99.90;;;;;;5000882;28;20050;-76
2023/10/18 13:52:01;;;;;;;28.58;26.38;;;11.90;99.90;;;;;;4988808;28;20144;-75
2023/10/18 13:54:28;;;;;;;27.40;25.50;;;11.80;99.90;;;;;;4992206;28;20038;-75
2023/10/18 13:56:56;;;;;;;27.80;25.77;;;11.80;99.90;;;;;;4995102;28;20046;-76
2023/10/18 13:59:22;;;;;;;26.23;24.33;;;11.80;99.90;;;;;;5001528;28;20495;-75
2023/10/18 14:01:49;;;;;;;27.02;24.92;;;11.80;99.90;;;;;;5006641;28;20100;-76
2023/10/18 14:04:24;;;;;;;27.40;25.50;;;11.70;99.90;;;;;;4999159;28;20050;-75
2023/10/18 14:06:55;;;;;;;28.10;25.23;;;11.70;99.90;;;;;;4982450;28;20049;-74
2023/10/18 14:09:25;;;;;;;27.48;25.10;;;11.70;99.90;;;;;;5002045;28;20735;-76
2023/10/18 14:11:53;;;;;;;26.42;24.67;;;11.70;99.90;;;;;;4992756;28;20132;-75
2023/10/18 14:14:20;;;;;;;27.98;26.10;;;11.80;99.90;;;;;;5004981;28;20164;-76
2023/10/18 14:16:48;;;;;;;26.63;24.58;;;11.70;99.90;;;;;;5002706;28;21554;-76
2023/10/18 14:19:19;;;;;;;26.80;25.00;;;11.80;99.90;;;;;;4988740;28;20125;-76
2023/10/18 14:21:48;;;;;;;29.15;27.05;;;11.90;99.90;;;;;;5029929;28;20057;-77